Sint-Maria-Lierde, Belgium
Current Conditions -  °F | °C
As of 3:13 AM on Tuesday 23 Dec 2014 (Local Time) from EBCV Reporting Station
Overcast Overcast  
Wind Chill: 52°   Ceiling: 2900
Heat Index: 52°   Visibility: 6mi
Dew Point: 45°   Wind: 18mph
Humidity: 76%   Direction: 240°WSW
Pressure: 30.21"   Gusts: NA
Location:  50.82°N, 3.85°E
Report Text: EBCV 230213Z AUTO 24016KT 9999 SCT025/// OVC029/// 11/07 Q1023 BLU
Loading
Personal Weather Stations






























Interactive Weather Map New forecast layout! Learn more

10-Day Weather Forecast

Advertisements
Track Severe Weather on mobile